sensor_id;sensor_type;location;lat;lon;timestamp;temperature;humidity
46055;DHT22;31788;6.954;-71.872;2023-04-22T00:01:27;28.90;99.30
46055;DHT22;31788;6.954;-71.872;2023-04-22T00:03:54;28.90;99.40
46055;DHT22;31788;6.954;-71.872;2023-04-22T00:06:20;28.90;99.50
46055;DHT22;31788;6.954;-71.872;2023-04-22T00:08:47;28.90;99.50
46055;DHT22;31788;6.954;-71.872;2023-04-22T00:11:14;28.90;99.50
46055;DHT22;31788;6.954;-71.872;2023-04-22T00:13:40;28.90;99.50
46055;DHT22;31788;6.954;-71.872;2023-04-22T00:16:07;28.90;99.70
46055;DHT22;31788;6.954;-71.872;2023-04-22T00:18:34;28.80;99.70
46055;DHT22;31788;6.954;-71.872;2023-04-22T00:21:02;28.90;99.80
46055;DHT22;31788;6.954;-71.872;2023-04-22T00:23:29;28.90;99.90
46055;DHT22;31788;6.954;-71.872;2023-04-22T00:25:56;28.90;99.80
46055;DHT22;31788;6.954;-71.872;2023-04-22T00:28:22;28.90;99.80
46055;DHT22;31788;6.954;-71.872;2023-04-22T00:30:49;28.90;99.90
46055;DHT22;31788;6.954;-71.872;2023-04-22T00:33:15;28.90;99.80
46055;DHT22;31788;6.954;-71.872;2023-04-22T00:35:43;28.90;99.90
46055;DHT22;31788;6.954;-71.872;2023-04-22T00:38:10;28.90;99.90
46055;DHT22;31788;6.954;-71.872;2023-04-22T00:40:36;28.90;99.60
46055;DHT22;31788;6.954;-71.872;2023-04-22T00:43:03;28.90;99.50
46055;DHT22;31788;6.954;-71.872;2023-04-22T00:45:30;28.80;99.30
46055;DHT22;31788;6.954;-71.872;2023-04-22T00:47:57;28.90;99.30
46055;DHT22;31788;6.954;-71.872;2023-04-22T00:50:24;28.90;99.20
46055;DHT22;31788;6.954;-71.872;2023-04-22T00:52:50;28.80;99.30
46055;DHT22;31788;6.954;-71.872;2023-04-22T00:55:17;28.90;99.30
46055;DHT22;31788;6.954;-71.872;2023-04-22T00:57:45;28.80;99.20
46055;DHT22;31788;6.954;-71.872;2023-04-22T01:00:14;28.80;99.20
46055;DHT22;31788;6.954;-71.872;2023-04-22T01:02:41;28.80;99.30
46055;DHT22;31788;6.954;-71.872;2023-04-22T01:05:08;28.80;99.40
46055;DHT22;31788;6.954;-71.872;2023-04-22T01:07:35;28.90;99.60
46055;DHT22;31788;6.954;-71.872;2023-04-22T01:10:04;28.80;99.60
46055;DHT22;31788;6.954;-71.872;2023-04-22T01:12:31;28.80;99.60
46055;DHT22;31788;6.954;-71.872;2023-04-22T01:14:58;28.80;99.70
46055;DHT22;31788;6.954;-71.872;2023-04-22T01:17:24;28.80;99.60
46055;DHT22;31788;6.954;-71.872;2023-04-22T01:19:52;28.80;99.90
46055;DHT22;31788;6.954;-71.872;2023-04-22T01:22:21;28.80;99.80
46055;DHT22;31788;6.954;-71.872;2023-04-22T01:24:49;28.80;99.90
46055;DHT22;31788;6.954;-71.872;2023-04-22T01:27:16;28.80;99.80
46055;DHT22;31788;6.954;-71.872;2023-04-22T01:29:43;28.80;99.90
46055;DHT22;31788;6.954;-71.872;2023-04-22T01:32:10;28.80;99.90
46055;DHT22;31788;6.954;-71.872;2023-04-22T01:34:36;28.80;99.90
46055;DHT22;31788;6.954;-71.872;2023-04-22T01:37:03;28.80;99.70
46055;DHT22;31788;6.954;-71.872;2023-04-22T01:39:31;28.80;99.50
46055;DHT22;31788;6.954;-71.872;2023-04-22T01:41:58;28.80;99.60
46055;DHT22;31788;6.954;-71.872;2023-04-22T01:44:25;28.80;99.70
46055;DHT22;31788;6.954;-71.872;2023-04-22T01:46:51;28.80;99.70
46055;DHT22;31788;6.954;-71.872;2023-04-22T01:49:18;28.70;99.60
46055;DHT22;31788;6.954;-71.872;2023-04-22T01:51:45;28.70;99.60
46055;DHT22;31788;6.954;-71.872;2023-04-22T01:54:11;28.70;99.70
46055;DHT22;31788;6.954;-71.872;2023-04-22T01:56:38;28.70;99.80
46055;DHT22;31788;6.954;-71.872;2023-04-22T01:59:07;28.70;99.90
46055;DHT22;31788;6.954;-71.872;2023-04-22T02:01:34;28.70;99.70
46055;DHT22;31788;6.954;-71.872;2023-04-22T02:04:00;28.70;99.70
46055;DHT22;31788;6.954;-71.872;2023-04-22T02:06:27;28.70;99.70
46055;DHT22;31788;6.954;-71.872;2023-04-22T02:08:53;28.70;99.70
46055;DHT22;31788;6.954;-71.872;2023-04-22T02:11:20;28.70;99.70
46055;DHT22;31788;6.954;-71.872;2023-04-22T02:13:47;28.70;99.60
46055;DHT22;31788;6.954;-71.872;2023-04-22T02:16:13;28.60;99.60
46055;DHT22;31788;6.954;-71.872;2023-04-22T02:18:40;28.70;99.60
46055;DHT22;31788;6.954;-71.872;2023-04-22T02:21:06;28.70;99.50
46055;DHT22;31788;6.954;-71.872;2023-04-22T02:23:35;28.70;99.50
46055;DHT22;31788;6.954;-71.872;2023-04-22T02:26:01;28.60;99.60
46055;DHT22;31788;6.954;-71.872;2023-04-22T02:28:28;28.60;99.50
46055;DHT22;31788;6.954;-71.872;2023-04-22T02:30:55;28.60;99.30
46055;DHT22;31788;6.954;-71.872;2023-04-22T02:33:23;28.60;99.30
46055;DHT22;31788;6.954;-71.872;2023-04-22T02:35:49;28.60;99.20
46055;DHT22;31788;6.954;-71.872;2023-04-22T02:38:16;28.60;99.10
46055;DHT22;31788;6.954;-71.872;2023-04-22T02:40:44;28.60;98.80
46055;DHT22;31788;6.954;-71.872;2023-04-22T02:43:13;28.60;98.60
46055;DHT22;31788;6.954;-71.872;2023-04-22T02:45:39;28.60;98.40
46055;DHT22;31788;6.954;-71.872;2023-04-22T02:48:06;28.60;98.20
46055;DHT22;31788;6.954;-71.872;2023-04-22T02:50:33;28.60;98.20
46055;DHT22;31788;6.954;-71.872;2023-04-22T02:52:59;28.60;98.00
46055;DHT22;31788;6.954;-71.872;2023-04-22T02:55:27;28.50;97.80
46055;DHT22;31788;6.954;-71.872;2023-04-22T02:57:53;28.50;97.90
46055;DHT22;31788;6.954;-71.872;2023-04-22T03:00:20;28.50;97.70
46055;DHT22;31788;6.954;-71.872;2023-04-22T03:02:47;28.50;97.90
46055;DHT22;31788;6.954;-71.872;2023-04-22T03:05:13;28.50;97.80
46055;DHT22;31788;6.954;-71.872;2023-04-22T03:07:40;28.50;97.70
46055;DHT22;31788;6.954;-71.872;2023-04-22T03:10:07;28.50;97.60
46055;DHT22;31788;6.954;-71.872;2023-04-22T03:12:34;28.50;97.50
46055;DHT22;31788;6.954;-71.872;2023-04-22T03:15:01;28.50;97.30
46055;DHT22;31788;6.954;-71.872;2023-04-22T03:17:27;28.50;97.60
46055;DHT22;31788;6.954;-71.872;2023-04-22T03:19:54;28.50;97.40
46055;DHT22;31788;6.954;-71.872;2023-04-22T03:22:21;28.50;97.30
46055;DHT22;31788;6.954;-71.872;2023-04-22T03:24:48;28.50;97.20
46055;DHT22;31788;6.954;-71.872;2023-04-22T03:27:14;28.50;97.30
46055;DHT22;31788;6.954;-71.872;2023-04-22T03:29:41;28.50;97.10
46055;DHT22;31788;6.954;-71.872;2023-04-22T03:32:07;28.50;97.40
46055;DHT22;31788;6.954;-71.872;2023-04-22T03:34:34;28.50;97.00
46055;DHT22;31788;6.954;-71.872;2023-04-22T03:37:00;28.50;97.00
46055;DHT22;31788;6.954;-71.872;2023-04-22T03:39:27;28.40;97.00
46055;DHT22;31788;6.954;-71.872;2023-04-22T03:41:53;28.50;97.00
46055;DHT22;31788;6.954;-71.872;2023-04-22T03:44:20;28.40;96.90
46055;DHT22;31788;6.954;-71.872;2023-04-22T03:46:47;28.40;96.90
46055;DHT22;31788;6.954;-71.872;2023-04-22T03:49:13;28.40;96.70
46055;DHT22;31788;6.954;-71.872;2023-04-22T03:51:40;28.40;96.60
46055;DHT22;31788;6.954;-71.872;2023-04-22T03:54:06;28.40;96.50
46055;DHT22;31788;6.954;-71.872;2023-04-22T03:56:33;28.40;96.60
46055;DHT22;31788;6.954;-71.872;2023-04-22T03:59:00;28.40;96.70
46055;DHT22;31788;6.954;-71.872;2023-04-22T04:01:26;28.40;96.80
46055;DHT22;31788;6.954;-71.872;2023-04-22T04:03:53;28.40;97.00
46055;DHT22;31788;6.954;-71.872;2023-04-22T04:06:19;28.40;97.20
46055;DHT22;31788;6.954;-71.872;2023-04-22T04:08:47;28.40;97.40
46055;DHT22;31788;6.954;-71.872;2023-04-22T04:11:14;28.40;97.30
46055;DHT22;31788;6.954;-71.872;2023-04-22T04:13:40;28.40;97.20
46055;DHT22;31788;6.954;-71.872;2023-04-22T04:16:07;28.40;97.20
46055;DHT22;31788;6.954;-71.872;2023-04-22T04:18:33;28.30;97.30
46055;DHT22;31788;6.954;-71.872;2023-04-22T04:21:00;28.30;97.70
46055;DHT22;31788;6.954;-71.872;2023-04-22T04:23:26;28.30;97.50
46055;DHT22;31788;6.954;-71.872;2023-04-22T04:25:53;28.30;97.50
46055;DHT22;31788;6.954;-71.872;2023-04-22T04:28:21;28.20;97.50
46055;DHT22;31788;6.954;-71.872;2023-04-22T04:30:48;28.30;97.70
46055;DHT22;31788;6.954;-71.872;2023-04-22T04:33:14;28.30;97.80
46055;DHT22;31788;6.954;-71.872;2023-04-22T04:35:41;28.20;97.80
46055;DHT22;31788;6.954;-71.872;2023-04-22T04:38:08;28.20;97.80
46055;DHT22;31788;6.954;-71.872;2023-04-22T04:40:35;28.20;97.80
46055;DHT22;31788;6.954;-71.872;2023-04-22T04:43:02;28.20;97.70
46055;DHT22;31788;6.954;-71.872;2023-04-22T04:45:33;28.20;97.80
46055;DHT22;31788;6.954;-71.872;2023-04-22T04:48:03;28.20;97.70
46055;DHT22;31788;6.954;-71.872;2023-04-22T04:50:32;28.20;97.60
46055;DHT22;31788;6.954;-71.872;2023-04-22T04:52:59;28.10;97.60
46055;DHT22;31788;6.954;-71.872;2023-04-22T04:55:26;28.10;97.70
46055;DHT22;31788;6.954;-71.872;2023-04-22T04:57:53;28.10;97.70
46055;DHT22;31788;6.954;-71.872;2023-04-22T05:00:19;28.20;97.80
46055;DHT22;31788;6.954;-71.872;2023-04-22T05:02:46;28.20;97.90
46055;DHT22;31788;6.954;-71.872;2023-04-22T05:05:12;28.10;97.90
46055;DHT22;31788;6.954;-71.872;2023-04-22T05:07:39;28.20;98.00
46055;DHT22;31788;6.954;-71.872;2023-04-22T05:10:06;28.10;98.00
46055;DHT22;31788;6.954;-71.872;2023-04-22T05:12:33;28.10;98.00
46055;DHT22;31788;6.954;-71.872;2023-04-22T05:14:59;28.10;98.10
46055;DHT22;31788;6.954;-71.872;2023-04-22T05:17:26;28.10;98.20
46055;DHT22;31788;6.954;-71.872;2023-04-22T05:19:53;28.10;98.30
46055;DHT22;31788;6.954;-71.872;2023-04-22T05:22:20;28.00;98.60
46055;DHT22;31788;6.954;-71.872;2023-04-22T05:24:46;28.00;98.40
46055;DHT22;31788;6.954;-71.872;2023-04-22T05:27:13;28.00;98.40
46055;DHT22;31788;6.954;-71.872;2023-04-22T05:29:40;28.00;98.50
46055;DHT22;31788;6.954;-71.872;2023-04-22T05:32:07;28.00;98.50
46055;DHT22;31788;6.954;-71.872;2023-04-22T05:34:36;28.00;98.60
46055;DHT22;31788;6.954;-71.872;2023-04-22T05:37:03;27.90;98.60
46055;DHT22;31788;6.954;-71.872;2023-04-22T05:39:30;27.90;98.60
46055;DHT22;31788;6.954;-71.872;2023-04-22T05:41:57;27.90;98.60
46055;DHT22;31788;6.954;-71.872;2023-04-22T05:44:23;27.80;98.50
46055;DHT22;31788;6.954;-71.872;2023-04-22T05:46:50;27.90;98.60
46055;DHT22;31788;6.954;-71.872;2023-04-22T05:49:17;27.80;98.60
46055;DHT22;31788;6.954;-71.872;2023-04-22T05:51:44;27.80;98.50
46055;DHT22;31788;6.954;-71.872;2023-04-22T05:54:11;27.80;98.70
46055;DHT22;31788;6.954;-71.872;2023-04-22T05:56:37;27.80;98.70
46055;DHT22;31788;6.954;-71.872;2023-04-22T05:59:04;27.80;98.70
46055;DHT22;31788;6.954;-71.872;2023-04-22T06:01:30;27.80;98.60
46055;DHT22;31788;6.954;-71.872;2023-04-22T06:03:57;27.80;98.70
46055;DHT22;31788;6.954;-71.872;2023-04-22T06:06:24;27.80;98.80
46055;DHT22;31788;6.954;-71.872;2023-04-22T06:08:51;27.80;98.80
46055;DHT22;31788;6.954;-71.872;2023-04-22T06:11:17;27.80;98.70
46055;DHT22;31788;6.954;-71.872;2023-04-22T06:13:44;27.80;98.70
46055;DHT22;31788;6.954;-71.872;2023-04-22T06:16:10;27.80;98.80
46055;DHT22;31788;6.954;-71.872;2023-04-22T06:18:37;27.80;98.80
46055;DHT22;31788;6.954;-71.872;2023-04-22T06:21:03;27.80;98.80
46055;DHT22;31788;6.954;-71.872;2023-04-22T06:23:30;27.70;98.80
46055;DHT22;31788;6.954;-71.872;2023-04-22T06:25:57;27.70;98.80
46055;DHT22;31788;6.954;-71.872;2023-04-22T06:28:23;27.70;98.80
46055;DHT22;31788;6.954;-71.872;2023-04-22T06:30:50;27.70;98.80
46055;DHT22;31788;6.954;-71.872;2023-04-22T06:33:17;27.70;98.90
46055;DHT22;31788;6.954;-71.872;2023-04-22T06:35:43;27.70;98.80
46055;DHT22;31788;6.954;-71.872;2023-04-22T06:38:10;27.70;98.80
46055;DHT22;31788;6.954;-71.872;2023-04-22T06:40:37;27.70;98.70
46055;DHT22;31788;6.954;-71.872;2023-04-22T06:43:03;27.70;99.10
46055;DHT22;31788;6.954;-71.872;2023-04-22T06:45:30;27.70;98.70
46055;DHT22;31788;6.954;-71.872;2023-04-22T06:47:57;27.60;98.70
46055;DHT22;31788;6.954;-71.872;2023-04-22T06:50:23;27.60;98.70
46055;DHT22;31788;6.954;-71.872;2023-04-22T06:52:50;27.60;98.70
46055;DHT22;31788;6.954;-71.872;2023-04-22T06:55:17;27.70;98.80
46055;DHT22;31788;6.954;-71.872;2023-04-22T06:57:43;27.70;98.70
46055;DHT22;31788;6.954;-71.872;2023-04-22T07:00:11;27.70;98.80
46055;DHT22;31788;6.954;-71.872;2023-04-22T07:02:37;27.60;98.80
46055;DHT22;31788;6.954;-71.872;2023-04-22T07:05:04;27.60;98.80
46055;DHT22;31788;6.954;-71.872;2023-04-22T07:07:30;27.50;98.90
46055;DHT22;31788;6.954;-71.872;2023-04-22T07:09:57;27.50;99.10
46055;DHT22;31788;6.954;-71.872;2023-04-22T07:12:24;27.50;99.20
46055;DHT22;31788;6.954;-71.872;2023-04-22T07:14:50;27.40;99.20
46055;DHT22;31788;6.954;-71.872;2023-04-22T07:17:17;27.40;99.30
46055;DHT22;31788;6.954;-71.872;2023-04-22T07:19:47;27.40;99.70
46055;DHT22;31788;6.954;-71.872;2023-04-22T07:22:14;27.30;99.40
46055;DHT22;31788;6.954;-71.872;2023-04-22T07:24:41;27.30;99.50
46055;DHT22;31788;6.954;-71.872;2023-04-22T07:27:07;27.30;99.50
46055;DHT22;31788;6.954;-71.872;2023-04-22T07:29:34;27.30;99.50
46055;DHT22;31788;6.954;-71.872;2023-04-22T07:32:01;27.30;99.50
46055;DHT22;31788;6.954;-71.872;2023-04-22T07:34:27;27.30;99.50
46055;DHT22;31788;6.954;-71.872;2023-04-22T07:36:54;27.30;99.60
46055;DHT22;31788;6.954;-71.872;2023-04-22T07:39:22;27.20;99.70
46055;DHT22;31788;6.954;-71.872;2023-04-22T07:41:48;27.30;99.70
46055;DHT22;31788;6.954;-71.872;2023-04-22T07:44:16;27.20;99.90
46055;DHT22;31788;6.954;-71.872;2023-04-22T07:46:47;27.20;99.80
46055;DHT22;31788;6.954;-71.872;2023-04-22T07:49:14;27.20;99.90
46055;DHT22;31788;6.954;-71.872;2023-04-22T07:51:44;27.20;99.90
46055;DHT22;31788;6.954;-71.872;2023-04-22T07:54:11;27.20;99.90
46055;DHT22;31788;6.954;-71.872;2023-04-22T07:56:38;27.20;99.90
46055;DHT22;31788;6.954;-71.872;2023-04-22T07:59:04;27.10;99.90
46055;DHT22;31788;6.954;-71.872;2023-04-22T08:01:31;27.10;99.90
46055;DHT22;31788;6.954;-71.872;2023-04-22T08:03:58;27.10;99.90
46055;DHT22;31788;6.954;-71.872;2023-04-22T08:06:24;27.10;99.90
46055;DHT22;31788;6.954;-71.872;2023-04-22T08:08:53;27.00;99.90
46055;DHT22;31788;6.954;-71.872;2023-04-22T08:11:19;27.00;99.90
46055;DHT22;31788;6.954;-71.872;2023-04-22T08:13:46;27.10;99.90
46055;DHT22;31788;6.954;-71.872;2023-04-22T08:16:13;27.00;99.90
46055;DHT22;31788;6.954;-71.872;2023-04-22T08:18:39;27.00;99.90
46055;DHT22;31788;6.954;-71.872;2023-04-22T08:21:06;27.00;99.90
46055;DHT22;31788;6.954;-71.872;2023-04-22T08:23:32;27.00;99.90
46055;DHT22;31788;6.954;-71.872;2023-04-22T08:25:59;27.00;99.90
46055;DHT22;31788;6.954;-71.872;2023-04-22T08:28:26;27.00;99.90
46055;DHT22;31788;6.954;-71.872;2023-04-22T08:30:52;27.00;99.90
46055;DHT22;31788;6.954;-71.872;2023-04-22T08:33:19;27.00;99.90
46055;DHT22;31788;6.954;-71.872;2023-04-22T08:35:46;27.00;99.90
46055;DHT22;31788;6.954;-71.872;2023-04-22T08:38:12;27.00;99.90
46055;DHT22;31788;6.954;-71.872;2023-04-22T08:40:41;27.00;99.90
46055;DHT22;31788;6.954;-71.872;2023-04-22T08:43:09;27.00;99.90
46055;DHT22;31788;6.954;-71.872;2023-04-22T08:45:38;27.00;99.90
46055;DHT22;31788;6.954;-71.872;2023-04-22T08:48:07;26.90;99.90
46055;DHT22;31788;6.954;-71.872;2023-04-22T08:50:36;27.00;99.90
46055;DHT22;31788;6.954;-71.872;2023-04-22T08:53:03;27.00;99.90
46055;DHT22;31788;6.954;-71.872;2023-04-22T08:55:30;27.00;99.90
46055;DHT22;31788;6.954;-71.872;2023-04-22T08:57:59;27.00;99.90
46055;DHT22;31788;6.954;-71.872;2023-04-22T09:00:26;27.00;99.90
46055;DHT22;31788;6.954;-71.872;2023-04-22T09:02:53;27.00;99.90
46055;DHT22;31788;6.954;-71.872;2023-04-22T09:05:21;27.00;99.90
46055;DHT22;31788;6.954;-71.872;2023-04-22T09:07:49;27.00;99.90
46055;DHT22;31788;6.954;-71.872;2023-04-22T09:10:16;27.00;99.90
46055;DHT22;31788;6.954;-71.872;2023-04-22T09:12:43;27.00;99.90
46055;DHT22;31788;6.954;-71.872;2023-04-22T09:15:10;27.00;99.90
46055;DHT22;31788;6.954;-71.872;2023-04-22T09:17:37;27.00;99.90
46055;DHT22;31788;6.954;-71.872;2023-04-22T09:20:05;27.00;99.90
46055;DHT22;31788;6.954;-71.872;2023-04-22T09:22:43;27.00;99.90
46055;DHT22;31788;6.954;-71.872;2023-04-22T09:25:21;26.90;99.90
46055;DHT22;31788;6.954;-71.872;2023-04-22T09:27:51;26.90;99.90
46055;DHT22;31788;6.954;-71.872;2023-04-22T09:30:35;27.00;99.90
46055;DHT22;31788;6.954;-71.872;2023-04-22T09:33:07;26.90;99.90
46055;DHT22;31788;6.954;-71.872;2023-04-22T09:35:39;26.90;99.90
46055;DHT22;31788;6.954;-71.872;2023-04-22T09:38:10;26.80;99.90
46055;DHT22;31788;6.954;-71.872;2023-04-22T09:40:41;26.90;99.90
46055;DHT22;31788;6.954;-71.872;2023-04-22T09:43:09;26.80;99.90
46055;DHT22;31788;6.954;-71.872;2023-04-22T09:45:40;26.80;99.90
46055;DHT22;31788;6.954;-71.872;2023-04-22T09:48:14;26.80;99.90
46055;DHT22;31788;6.954;-71.872;2023-04-22T09:50:47;26.80;99.90
46055;DHT22;31788;6.954;-71.872;2023-04-22T09:53:15;26.80;99.90
46055;DHT22;31788;6.954;-71.872;2023-04-22T09:55:45;26.80;99.90
46055;DHT22;31788;6.954;-71.872;2023-04-22T09:58:13;26.80;99.90
46055;DHT22;31788;6.954;-71.872;2023-04-22T10:01:00;26.80;99.90
46055;DHT22;31788;6.954;-71.872;2023-04-22T10:03:28;26.80;99.90
46055;DHT22;31788;6.954;-71.872;2023-04-22T10:05:55;26.80;99.90
46055;DHT22;31788;6.954;-71.872;2023-04-22T10:08:21;26.80;99.90
46055;DHT22;31788;6.954;-71.872;2023-04-22T10:10:48;26.80;99.90
46055;DHT22;31788;6.954;-71.872;2023-04-22T10:13:14;26.80;99.90
46055;DHT22;31788;6.954;-71.872;2023-04-22T10:15:55;26.80;99.90
46055;DHT22;31788;6.954;-71.872;2023-04-22T10:18:24;26.80;99.90
46055;DHT22;31788;6.954;-71.872;2023-04-22T10:20:53;26.70;99.90
46055;DHT22;31788;6.954;-71.872;2023-04-22T10:23:23;26.80;99.90
46055;DHT22;31788;6.954;-71.872;2023-04-22T10:25:52;26.80;99.90
46055;DHT22;31788;6.954;-71.872;2023-04-22T10:28:21;26.80;99.90
46055;DHT22;31788;6.954;-71.872;2023-04-22T10:30:48;26.70;99.90
46055;DHT22;31788;6.954;-71.872;2023-04-22T10:38:40;26.70;99.90
46055;DHT22;31788;6.954;-71.872;2023-04-22T10:41:13;26.70;99.90
46055;DHT22;31788;6.954;-71.872;2023-04-22T10:43:45;26.70;99.90
46055;DHT22;31788;6.954;-71.872;2023-04-22T10:48:58;26.70;99.90
46055;DHT22;31788;6.954;-71.872;2023-04-22T11:02:08;26.70;99.90
46055;DHT22;31788;6.954;-71.872;2023-04-22T11:04:35;26.70;99.90
46055;DHT22;31788;6.954;-71.872;2023-04-22T11:10:07;26.60;99.90
46055;DHT22;31788;6.954;-71.872;2023-04-22T11:12:42;26.70;99.90
46055;DHT22;31788;6.954;-71.872;2023-04-22T11:15:16;26.60;99.90
46055;DHT22;31788;6.954;-71.872;2023-04-22T11:17:45;26.60;99.90
46055;DHT22;31788;6.954;-71.872;2023-04-22T11:20:13;26.60;99.90
46055;DHT22;31788;6.954;-71.872;2023-04-22T11:22:51;26.60;99.90
46055;DHT22;31788;6.954;-71.872;2023-04-22T11:25:18;26.50;99.90
46055;DHT22;31788;6.954;-71.872;2023-04-22T11:27:46;26.50;99.90
46055;DHT22;31788;6.954;-71.872;2023-04-22T11:30:18;26.50;99.90
46055;DHT22;31788;6.954;-71.872;2023-04-22T11:32:47;26.50;99.90
46055;DHT22;31788;6.954;-71.872;2023-04-22T11:35:19;26.50;99.90
46055;DHT22;31788;6.954;-71.872;2023-04-22T11:37:51;26.50;99.90
46055;DHT22;31788;6.954;-71.872;2023-04-22T11:40:20;26.50;99.90
46055;DHT22;31788;6.954;-71.872;2023-04-22T11:42:47;26.40;99.90
46055;DHT22;31788;6.954;-71.872;2023-04-22T11:45:14;26.40;99.90
46055;DHT22;31788;6.954;-71.872;2023-04-22T11:47:41;26.40;99.90
46055;DHT22;31788;6.954;-71.872;2023-04-22T11:50:10;26.40;99.90
46055;DHT22;31788;6.954;-71.872;2023-04-22T11:53:03;26.40;99.90
46055;DHT22;31788;6.954;-71.872;2023-04-22T11:55:30;26.40;99.90
46055;DHT22;31788;6.954;-71.872;2023-04-22T12:00:34;26.30;99.90
46055;DHT22;31788;6.954;-71.872;2023-04-22T12:03:02;26.30;99.90
46055;DHT22;31788;6.954;-71.872;2023-04-22T12:08:15;26.30;99.90
46055;DHT22;31788;6.954;-71.872;2023-04-22T12:10:49;26.30;99.90
46055;DHT22;31788;6.954;-71.872;2023-04-22T12:13:25;26.30;99.90
46055;DHT22;31788;6.954;-71.872;2023-04-22T12:16:02;26.30;99.90
46055;DHT22;31788;6.954;-71.872;2023-04-22T12:18:37;26.30;99.90
46055;DHT22;31788;6.954;-71.872;2023-04-22T12:21:10;26.40;99.90
46055;DHT22;31788;6.954;-71.872;2023-04-22T12:23:49;26.40;99.90
46055;DHT22;31788;6.954;-71.872;2023-04-22T12:26:18;26.40;99.90
46055;DHT22;31788;6.954;-71.872;2023-04-22T12:28:46;26.50;99.90
46055;DHT22;31788;6.954;-71.872;2023-04-22T12:31:14;26.40;99.90
46055;DHT22;31788;6.954;-71.872;2023-04-22T12:33:40;26.50;99.90
46055;DHT22;31788;6.954;-71.872;2023-04-22T12:36:08;26.40;99.90
46055;DHT22;31788;6.954;-71.872;2023-04-22T12:38:35;26.50;99.90
46055;DHT22;31788;6.954;-71.872;2023-04-22T12:41:03;26.50;99.90
46055;DHT22;31788;6.954;-71.872;2023-04-22T12:43:30;26.40;99.90
46055;DHT22;31788;6.954;-71.872;2023-04-22T12:46:00;26.40;99.90
46055;DHT22;31788;6.954;-71.872;2023-04-22T12:48:27;26.40;99.90
46055;DHT22;31788;6.954;-71.872;2023-04-22T12:50:55;26.50;99.90
46055;DHT22;31788;6.954;-71.872;2023-04-22T12:53:26;26.50;99.90
46055;DHT22;31788;6.954;-71.872;2023-04-22T12:55:54;26.50;99.90
46055;DHT22;31788;6.954;-71.872;2023-04-22T12:58:20;26.50;99.90
46055;DHT22;31788;6.954;-71.872;2023-04-22T13:00:47;26.50;99.90
46055;DHT22;31788;6.954;-71.872;2023-04-22T13:03:13;26.50;99.90
46055;DHT22;31788;6.954;-71.872;2023-04-22T13:05:40;26.50;99.90
46055;DHT22;31788;6.954;-71.872;2023-04-22T13:08:07;26.50;99.90
46055;DHT22;31788;6.954;-71.872;2023-04-22T13:10:33;26.50;99.90
46055;DHT22;31788;6.954;-71.872;2023-04-22T13:13:01;26.60;99.90
46055;DHT22;31788;6.954;-71.872;2023-04-22T13:15:31;26.60;99.90
46055;DHT22;31788;6.954;-71.872;2023-04-22T13:17:58;26.70;99.90
46055;DHT22;31788;6.954;-71.872;2023-04-22T13:20:24;26.70;99.90
46055;DHT22;31788;6.954;-71.872;2023-04-22T13:22:51;26.70;99.90
46055;DHT22;31788;6.954;-71.872;2023-04-22T13:25:17;26.70;99.90
46055;DHT22;31788;6.954;-71.872;2023-04-22T13:27:44;26.80;99.90
46055;DHT22;31788;6.954;-71.872;2023-04-22T13:30:11;26.80;99.90
46055;DHT22;31788;6.954;-71.872;2023-04-22T13:32:38;26.80;99.90
46055;DHT22;31788;6.954;-71.872;2023-04-22T13:35:04;26.80;99.90
46055;DHT22;31788;6.954;-71.872;2023-04-22T13:37:33;26.80;99.90
46055;DHT22;31788;6.954;-71.872;2023-04-22T13:39:59;26.80;99.90
46055;DHT22;31788;6.954;-71.872;2023-04-22T13:42:26;26.80;99.90
46055;DHT22;31788;6.954;-71.872;2023-04-22T13:44:52;26.80;99.90
46055;DHT22;31788;6.954;-71.872;2023-04-22T13:47:19;26.80;99.90
46055;DHT22;31788;6.954;-71.872;2023-04-22T13:49:46;26.80;99.90
46055;DHT22;31788;6.954;-71.872;2023-04-22T13:52:12;26.80;99.90
46055;DHT22;31788;6.954;-71.872;2023-04-22T13:54:39;26.80;99.90
46055;DHT22;31788;6.954;-71.872;2023-04-22T13:57:06;26.80;99.90
46055;DHT22;31788;6.954;-71.872;2023-04-22T13:59:34;26.80;99.90
46055;DHT22;31788;6.954;-71.872;2023-04-22T14:02:01;26.80;99.90
46055;DHT22;31788;6.954;-71.872;2023-04-22T14:04:28;26.80;99.90
46055;DHT22;31788;6.954;-71.872;2023-04-22T14:06:54;26.80;99.90
46055;DHT22;31788;6.954;-71.872;2023-04-22T14:09:21;26.80;99.90
46055;DHT22;31788;6.954;-71.872;2023-04-22T14:11:48;26.80;99.90
46055;DHT22;31788;6.954;-71.872;2023-04-22T14:14:14;26.80;99.90
46055;DHT22;31788;6.954;-71.872;2023-04-22T14:16:41;26.80;99.90
46055;DHT22;31788;6.954;-71.872;2023-04-22T14:19:08;26.80;99.90
46055;DHT22;31788;6.954;-71.872;2023-04-22T14:21:35;26.80;99.90
46055;DHT22;31788;6.954;-71.872;2023-04-22T14:24:01;26.80;99.90
46055;DHT22;31788;6.954;-71.872;2023-04-22T14:26:28;26.80;99.90
46055;DHT22;31788;6.954;-71.872;2023-04-22T14:28:57;26.80;99.90
46055;DHT22;31788;6.954;-71.872;2023-04-22T14:31:24;26.80;99.90
46055;DHT22;31788;6.954;-71.872;2023-04-22T14:33:51;26.80;99.90
46055;DHT22;31788;6.954;-71.872;2023-04-22T14:36:18;26.80;99.90
46055;DHT22;31788;6.954;-71.872;2023-04-22T14:38:45;26.90;99.90
46055;DHT22;31788;6.954;-71.872;2023-04-22T14:41:11;26.90;99.90
46055;DHT22;31788;6.954;-71.872;2023-04-22T14:43:38;26.90;99.90
46055;DHT22;31788;6.954;-71.872;2023-04-22T14:46:05;26.90;99.90
46055;DHT22;31788;6.954;-71.872;2023-04-22T14:48:31;26.90;99.90
46055;DHT22;31788;6.954;-71.872;2023-04-22T14:51:01;26.90;99.90
46055;DHT22;31788;6.954;-71.872;2023-04-22T14:53:28;26.90;99.90
46055;DHT22;31788;6.954;-71.872;2023-04-22T14:55:54;27.00;99.90
46055;DHT22;31788;6.954;-71.872;2023-04-22T14:58:21;27.00;99.90
46055;DHT22;31788;6.954;-71.872;2023-04-22T15:00:50;27.00;99.90
46055;DHT22;31788;6.954;-71.872;2023-04-22T15:03:17;27.00;99.90
46055;DHT22;31788;6.954;-71.872;2023-04-22T15:05:45;27.00;99.90
46055;DHT22;31788;6.954;-71.872;2023-04-22T15:08:14;27.00;99.90
46055;DHT22;31788;6.954;-71.872;2023-04-22T15:10:41;27.10;99.90
46055;DHT22;31788;6.954;-71.872;2023-04-22T15:13:08;27.10;99.90
46055;DHT22;31788;6.954;-71.872;2023-04-22T15:15:34;27.10;99.90
46055;DHT22;31788;6.954;-71.872;2023-04-22T15:18:01;27.20;99.90
46055;DHT22;31788;6.954;-71.872;2023-04-22T15:20:27;27.20;99.90
46055;DHT22;31788;6.954;-71.872;2023-04-22T15:22:54;27.30;99.90
46055;DHT22;31788;6.954;-71.872;2023-04-22T15:25:21;27.30;99.90
46055;DHT22;31788;6.954;-71.872;2023-04-22T15:27:49;27.30;99.90
46055;DHT22;31788;6.954;-71.872;2023-04-22T15:30:17;27.30;99.90
46055;DHT22;31788;6.954;-71.872;2023-04-22T15:32:43;27.30;99.90
46055;DHT22;31788;6.954;-71.872;2023-04-22T15:35:10;27.40;99.90
46055;DHT22;31788;6.954;-71.872;2023-04-22T15:37:37;27.40;99.90
46055;DHT22;31788;6.954;-71.872;2023-04-22T15:40:04;27.50;99.90
46055;DHT22;31788;6.954;-71.872;2023-04-22T15:42:32;27.50;99.90
46055;DHT22;31788;6.954;-71.872;2023-04-22T15:44:59;27.50;99.90